Ellisville, Illinois
Current Conditions -  °F | °C
As of 12:15 PM on Thursday 27 Nov 2014 (Local Time) from KMQB Reporting Station
Haze Haze  
Wind Chill:   Ceiling: 1800
Heat Index: 22°   Visibility: 5mi
Dew Point: 16°   Wind: 18mph
Humidity: 80%   Direction: 280°W
Pressure: 30.48"   Gusts: NA
Location:  40.63°N, 90.31°W
Report Text: KMQB 271815Z AUTO 28016KT 5SM HZ BKN018 M06/M09 A3048 RMK AO2 T10571087
Loading
Personal Weather Stations






























Interactive Weather Map New forecast layout! Learn more

10-Day Weather Forecast

Advertisements
Track Severe Weather on mobile